^^
Grace C. Lehan Memorial Weather Station Historical Data
Daily Summary for December 17, 2021 Units:  Metric    English   Both
Daily Weekly Monthly Yearly
  High: Low: Average:
Temperature: 16.1 °C 5.8 °C 11.7 °C
Dew Point: 8.4 °C -6.4 °C 0.2 °C
Humidity: 80% 24% 49%
Wind Speed: 12.4km/h 0km/h 3.4km/h
Wind Gust: 30.6km/h - -
Wind- - West
Pressure: 1021.6 hPa 1007.7 hPa -
Precipitation: 0 mm    
 
 
Tabular Data for December 17, 2021
Time Temperature Dew Point Pressure Wind Wind Speed Wind Gust Humidity Rainfall Rate (Hourly) solar
00:04 11.7 °C 7.9 °C 1009 hPa South 0.2 km/h 4.8 km/h 78% 0 mm 0 W/m2
00:09 11.6 °C 8.1 °C 1009 hPa Calm   3.2 km/h 79% 0 mm 0 W/m2
00:14 11.5 °C 7.9 °C 1009 hPa Calm   3.2 km/h 79% 0 mm 0 W/m2
00:19 11.4 °C 8.1 °C 1009 hPa South 0.2 km/h 3.2 km/h 79.6% 0 mm 0 W/m2
00:24 11.4 °C 8.1 °C 1008.7 hPa Calm   3.2 km/h 80% 0 mm 0 W/m2
00:29 11.4 °C 8.1 °C 1008.7 hPa Calm   3.2 km/h 80% 0 mm 0 W/m2
00:34 11.5 °C 8.2 °C 1008.7 hPa Calm   3.2 km/h 80% 0 mm 0 W/m2
00:39 11.5 °C 8.2 °C 1008.7 hPa Calm     80% 0 mm 0 W/m2
00:44 11.5 °C 8.2 °C 1008.7 hPa Calm     80% 0 mm 0 W/m2
00:49 11.4 °C 8.1 °C 1008.7 hPa Calm     80% 0 mm 0 W/m2
00:54 11.4 °C 8.1 °C 1008.4 hPa Calm     80% 0 mm 0 W/m2
00:59 11.3 °C 8.1 °C 1008.4 hPa Calm     80% 0 mm 0 W/m2
01:04 11.3 °C 7.9 °C 1008.4 hPa Calm     79.6% 0 mm 0 W/m2
01:09 11.3 °C 7.8 °C 1008.4 hPa South 0.2 km/h 3.2 km/h 79% 0 mm 0 W/m2
01:14 11.3 °C 7.8 °C 1008.4 hPa South 0.8 km/h 3.2 km/h 79% 0 mm 0 W/m2
01:19 11.3 °C 7.8 °C 1008.4 hPa South 1.3 km/h 6.4 km/h 79% 0 mm 0 W/m2
01:24 11.3 °C 7.8 °C 1008 hPa South 1.8 km/h 6.4 km/h 78.9% 0 mm 0 W/m2
01:29 11.4 °C 7.7 °C 1008 hPa South 2.6 km/h 8 km/h 78% 0 mm 0 W/m2
01:34 11.6 °C 7.8 °C 1008 hPa South 1.6 km/h 8 km/h 77.4% 0 mm 0 W/m2
01:39 11.8 °C 7.9 °C 1008 hPa SSW 2.7 km/h 8 km/h 76.8% 0 mm 0 W/m2
01:44 12.1 °C 7.9 °C 1007.7 hPa SSW 2.7 km/h 9.7 km/h 76% 0 mm 0 W/m2
01:49 12.3 °C 7.9 °C 1007.7 hPa SSW 3.7 km/h 9.7 km/h 75% 0 mm 0 W/m2
01:54 12.5 °C 8 °C 1008 hPa SSW 2.4 km/h 9.7 km/h 74.2% 0 mm 0 W/m2
01:59 12.7 °C 8.1 °C 1008 hPa SSW 1.8 km/h 9.7 km/h 73.3% 0 mm 0 W/m2
02:04 12.8 °C 8.2 °C 1008 hPa SSW 1.3 km/h 9.7 km/h 73% 0 mm 0 W/m2
02:09 12.9 °C 8.1 °C 1008.4 hPa SSW 1.1 km/h 6.4 km/h 72.1% 0 mm 0 W/m2
02:14 13 °C 8.1 °C 1008 hPa SSW 2.3 km/h 8 km/h 72% 0 mm 0 W/m2
02:19 13 °C 8.1 °C 1008 hPa SSW 1.3 km/h 9.7 km/h 72% 0 mm 0 W/m2
02:24 13 °C 8.1 °C 1008.4 hPa SSW 0.5 km/h 9.7 km/h 72% 0 mm 0 W/m2
02:29 12.9 °C 8 °C 1008.4 hPa Calm   9.7 km/h 72% 0 mm 0 W/m2
02:34 12.8 °C 7.9 °C 1008.4 hPa Calm   9.7 km/h 72% 0 mm 0 W/m2
02:39 12.8 °C 7.9 °C 1008.4 hPa Calm     72.1% 0 mm 0 W/m2
02:44 12.7 °C 7.9 °C 1008.4 hPa Calm     72.5% 0 mm 0 W/m2
02:49 12.7 °C 7.9 °C 1008.4 hPa Calm   1.6 km/h 73% 0 mm 0 W/m2
02:54 12.6 °C 7.9 °C 1008.4 hPa Calm   1.6 km/h 73% 0 mm 0 W/m2
02:59 12.5 °C 7.9 °C 1008.4 hPa SSW 0.2 km/h 3.2 km/h 73.3% 0 mm 0 W/m2
03:04 12.4 °C 7.9 °C 1008.4 hPa SSW 0.6 km/h 4.8 km/h 74% 0 mm 0 W/m2
03:09 12.4 °C 7.9 °C 1008.4 hPa SSW 2.4 km/h 6.4 km/h 74% 0 mm 0 W/m2
03:14 12.3 °C 7.8 °C 1008.4 hPa SSW 1.1 km/h 6.4 km/h 74% 0 mm 0 W/m2
03:19 12.3 °C 7.9 °C 1008 hPa SSW 1.6 km/h 6.4 km/h 74.8% 0 mm 0 W/m2
03:24 12.2 °C 7.9 °C 1008.4 hPa SSW 2.4 km/h 6.4 km/h 75% 0 mm 0 W/m2
03:29 12.2 °C 7.9 °C 1008.4 hPa SSW 2.9 km/h 9.7 km/h 75% 0 mm 0 W/m2
03:34 12.2 °C 7.9 °C 1008.4 hPa SSW 3.2 km/h 9.7 km/h 75% 0 mm 0 W/m2
03:39 12.2 °C 8 °C 1008 hPa SSW 4.3 km/h 9.7 km/h 75.7% 0 mm 0 W/m2
03:44 12.1 °C 8 °C 1008 hPa SSW 2.9 km/h 9.7 km/h 76% 0 mm 0 W/m2
03:49 12.1 °C 7.9 °C 1008.4 hPa SSW 1.9 km/h 9.7 km/h 76% 0 mm 0 W/m2
03:54 12 °C 7.9 °C 1008.4 hPa SSW 1 km/h 9.7 km/h 76% 0 mm 0 W/m2
03:59 11.9 °C 7.9 °C 1008.4 hPa SSW 1.4 km/h 9.7 km/h 76.4% 0 mm 0 W/m2
04:00 11.9 °C 8.1 °C 1008.4 hPa Calm   9.7 km/h 77% 0 mm 0 W/m2
04:09 11.9 °C 8 °C 1008.4 hPa SSW 3.1 km/h 8 km/h 77% 0 mm 0 W/m2
04:14 11.9 °C 8 °C 1008.4 hPa SSW 5.3 km/h 9.7 km/h 77% 0 mm 0 W/m2
04:19 11.9 °C 8 °C 1008.4 hPa SSW 4.7 km/h 9.7 km/h 77% 0 mm 0 W/m2
04:24 11.9 °C 8.1 °C 1008.4 hPa SSW 6 km/h 11.3 km/h 77% 0 mm 0 W/m2
04:29 11.9 °C 8.1 °C 1008.4 hPa SW 5.5 km/h 11.3 km/h 77% 0 mm 0 W/m2
04:34 11.9 °C 8.1 °C 1008.4 hPa SW 5.5 km/h 11.3 km/h 77.3% 0 mm 0 W/m2
04:39 11.9 °C 8.2 °C 1008.4 hPa SW 2.9 km/h 11.3 km/h 78% 0 mm 0 W/m2
04:44 11.9 °C 8.2 °C 1008.4 hPa SW 5.8 km/h 14.5 km/h 78% 0 mm 0 W/m2
04:49 12 °C 8.2 °C 1008.4 hPa SW 3.9 km/h 14.5 km/h 77.8% 0 mm 0 W/m2
04:54 11.9 °C 8.2 °C 1008.7 hPa SW 2.4 km/h 14.5 km/h 77.5% 0 mm 0 W/m2
04:59 11.9 °C 8.2 °C 1009 hPa SW 1.1 km/h 14.5 km/h 78% 0 mm 0 W/m2
05:04 11.9 °C 8.2 °C 1009 hPa SW 2.7 km/h 14.5 km/h 78% 0 mm 0 W/m2
05:09 11.9 °C 8.2 °C 1009 hPa SW 3.1 km/h 16.1 km/h 78% 0 mm 0 W/m2
05:14 12.1 °C 8.3 °C 1009 hPa SW 3.2 km/h 16.1 km/h 78% 0 mm 0 W/m2
05:19 12.1 °C 8.4 °C 1009.7 hPa WSW 3.1 km/h 16.1 km/h 77.7% 0 mm 0 W/m2
05:24 12.2 °C 8.3 °C 1009.7 hPa WSW 1.4 km/h 16.1 km/h 77% 0 mm 0 W/m2
05:29 12.3 °C 8.3 °C 1010 hPa WSW 0.6 km/h 16.1 km/h 77% 0 mm 0 W/m2
05:34 12.3 °C 8.4 °C 1010 hPa WSW 0.2 km/h 16.1 km/h 77% 0 mm 0 W/m2
05:39 12.3 °C 8.3 °C 1010.4 hPa Calm   6.4 km/h 77% 0 mm 0 W/m2
05:44 12.2 °C 8.3 °C 1010.7 hPa WSW 0.3 km/h 6.4 km/h 76.7% 0 mm 0 W/m2
05:49 12.2 °C 8.3 °C 1010.7 hPa West 1.6 km/h 9.7 km/h 76.8% 0 mm 0 W/m2
05:54 12.3 °C 8.2 °C 1011.1 hPa West 2.7 km/h 11.3 km/h 76% 0 mm 0 W/m2
05:59 12.3 °C 8.1 °C 1011.4 hPa WNW 3.5 km/h 11.3 km/h 75.3% 0 mm 0 W/m2
06:04 12.5 °C 7.9 °C 1011.4 hPa NW 10.3 km/h 29 km/h 73.6% 0 mm 0 W/m2
06:09 12.7 °C 6.8 °C 1011.4 hPa NW 12.2 km/h 30.6 km/h 67.1% 0 mm 0 W/m2
06:14 13 °C 6.3 °C 1011.7 hPa WNW 10.3 km/h 30.6 km/h 63.8% 0 mm 0 W/m2
06:19 13.2 °C 6.2 °C 1012.1 hPa WNW 5.6 km/h 30.6 km/h 62.5% 0 mm 0 W/m2
06:24 13.2 °C 5.9 °C 1012.1 hPa WNW 7.7 km/h 30.6 km/h 61.5% 0 mm 0 W/m2
06:29 13.1 °C 5.5 °C 1012.1 hPa WNW 6.8 km/h 30.6 km/h 60% 0 mm 0 W/m2
06:34 13 °C 5.1 °C 1012.4 hPa NW 6.3 km/h 30.6 km/h 58.5% 0 mm 0 W/m2
06:39 12.9 °C 4.7 °C 1012.4 hPa WNW 9.2 km/h 20.9 km/h 57.4% 0 mm 0 W/m2
06:44 12.8 °C 4.3 °C 1012.8 hPa WNW 4.2 km/h 20.9 km/h 56.3% 0 mm 0 W/m2
06:49 12.7 °C 4.2 °C 1012.8 hPa NW 3.1 km/h 20.9 km/h 56% 0 mm 0 W/m2
06:54 12.6 °C 4.1 °C 1012.8 hPa NW 2.7 km/h 20.9 km/h 56% 0 mm 0 W/m2
06:59 12.5 °C 3.9 °C 1012.8 hPa NW 1.3 km/h 20.9 km/h 56% 0 mm 0 W/m2
07:04 12.3 °C 3.8 °C 1013.1 hPa NW 1.9 km/h 20.9 km/h 56% 0 mm 0 W/m2
07:09 12.2 °C 3.7 °C 1013.1 hPa NW 0.3 km/h 6.4 km/h 56% 0 mm 0 W/m2
07:14 12.1 °C 3.6 °C 1013.4 hPa Calm   6.4 km/h 56% 0 mm 5 W/m2
07:19 12 °C 3.5 °C 1013.4 hPa NW 0.3 km/h 6.4 km/h 56% 0 mm 5 W/m2
07:24 11.8 °C 3.3 °C 1013.8 hPa NW 1 km/h 6.4 km/h 56% 0 mm 9 W/m2
07:29 11.7 °C 3.1 °C 1013.8 hPa NW 4.5 km/h 14.5 km/h 55.5% 0 mm 12 W/m2
07:34 11.7 °C 2.6 °C 1013.8 hPa NW 6.6 km/h 14.5 km/h 53.7% 0 mm 16 W/m2
07:39 11.7 °C 2.3 °C 1013.8 hPa WNW 9.2 km/h 19.3 km/h 52.7% 0 mm 30 W/m2
07:44 11.7 °C 2 °C 1013.8 hPa WNW 5 km/h 19.3 km/h 51.2% 0 mm 46 W/m2
07:49 11.8 °C 1.6 °C 1014.1 hPa WNW 5.8 km/h 19.3 km/h 49.4% 0 mm 56 W/m2
07:54 12 °C 1.1 °C 1014.1 hPa WNW 5.5 km/h 19.3 km/h 47.3% 0 mm 56 W/m2
07:59 12.2 °C 1.2 °C 1014.1 hPa WNW 4.3 km/h 19.3 km/h 47.1% 0 mm 74 W/m2
08:00 12.2 °C 0.7 °C 1014.1 hPa NW 2.4 km/h 19.3 km/h 45% 0 mm 74 W/m2
08:09 12.4 °C 0.4 °C 1014.1 hPa NW 3.5 km/h 14.5 km/h 43.7% 0 mm 107 W/m2
08:14 12.6 °C 0.2 °C 1014.1 hPa WNW 3.2 km/h 14.5 km/h 42.6% 0 mm 121 W/m2
08:19 12.8 °C 0 °C 1014.1 hPa WNW 4.3 km/h 19.3 km/h 41.4% 0 mm 148 W/m2
08:24 13.1 °C 0.1 °C 1014.1 hPa WNW 1.9 km/h 19.3 km/h 41% 0 mm 163 W/m2
08:29 13.3 °C 0.3 °C 1014.4 hPa WNW 2.3 km/h 19.3 km/h 40.7% 0 mm 148 W/m2
08:34 13.7 °C 0.3 °C 1014.4 hPa West 0.5 km/h 19.3 km/h 39.9% 0 mm 151 W/m2
08:39 14 °C 0.3 °C 1014.8 hPa West 0.3 km/h 6.4 km/h 39.2% 0 mm 181 W/m2
08:44 14.3 °C 0.4 °C 1014.8 hPa WNW 1.9 km/h 16.1 km/h 38.7% 0 mm 181 W/m2
08:49 14.3 °C -0.3 °C 1015.1 hPa WNW 5.1 km/h 16.1 km/h 36.7% 0 mm 176 W/m2
08:54 14.2 °C -1 °C 1015.1 hPa WNW 6.1 km/h 17.7 km/h 35.2% 0 mm 199 W/m2
08:59 14 °C -1.9 °C 1014.8 hPa WNW 10.5 km/h 24.1 km/h 33.2% 0 mm 211 W/m2
09:04 13.8 °C -2.3 °C 1015.1 hPa West 4.3 km/h 24.1 km/h 32.7% 0 mm 144 W/m2
09:09 13.8 °C -2.4 °C 1015.1 hPa West 5 km/h 16.1 km/h 32.5% 0 mm 146 W/m2
09:14 13.8 °C -2.4 °C 1015.5 hPa WNW 2.7 km/h 16.1 km/h 32.5% 0 mm 193 W/m2
09:19 13.8 °C -2.9 °C 1015.1 hPa WNW 8.2 km/h 22.5 km/h 31.3% 0 mm 135 W/m2
09:24 13.7 °C -3.1 °C 1015.1 hPa West 5.8 km/h 22.5 km/h 31% 0 mm 163 W/m2
09:29 13.7 °C -3.2 °C 1015.1 hPa WNW 8 km/h 22.5 km/h 30.8% 0 mm 148 W/m2
09:34 13.6 °C -3.6 °C 1015.5 hPa WNW 4.7 km/h 22.5 km/h 30.2% 0 mm 146 W/m2
09:39 13.6 °C -3.4 °C 1015.5 hPa WNW 4.5 km/h 16.1 km/h 30.7% 0 mm 183 W/m2
09:44 13.6 °C -3.4 °C 1015.5 hPa West 4.7 km/h 19.3 km/h 30.6% 0 mm 148 W/m2
09:49 13.6 °C -3.6 °C 1015.5 hPa West 7.1 km/h 19.3 km/h 30.2% 0 mm 132 W/m2
09:54 13.6 °C -3.6 °C 1015.5 hPa West 5.1 km/h 19.3 km/h 30.1% 0 mm 134 W/m2
09:59 13.6 °C -3.6 °C 1015.5 hPa WNW 8.7 km/h 22.5 km/h 30.2% 0 mm 197 W/m2
10:04 13.6 °C -3.7 °C 1015.5 hPa WNW 7.7 km/h 22.5 km/h 29.8% 0 mm 197 W/m2
10:09 13.8 °C -3.3 °C 1015.5 hPa West 2.4 km/h 20.9 km/h 30.5% 0 mm 269 W/m2
10:14 14.1 °C -3.3 °C 1015.5 hPa WNW 3.9 km/h 20.9 km/h 30% 0 mm 330 W/m2
10:19 14.4 °C -2.9 °C 1015.5 hPa WNW 6.6 km/h 20.9 km/h 30.1% 0 mm 406 W/m2
10:24 14.8 °C -3.1 °C 1015.5 hPa WNW 4.7 km/h 20.9 km/h 28.8% 0 mm 431 W/m2
10:29 15.2 °C -2.8 °C 1015.1 hPa WNW 7.2 km/h 20.9 km/h 28.8% 0 mm 438 W/m2
10:34 15.4 °C -2.8 °C 1015.1 hPa WNW 7.7 km/h 20.9 km/h 28.3% 0 mm 443 W/m2
10:39 15.5 °C -3.3 °C 1015.1 hPa WNW 6.9 km/h 19.3 km/h 27.1% 0 mm 441 W/m2
10:44 15.6 °C -3.3 °C 1015.1 hPa WNW 5.8 km/h 19.3 km/h 27.1% 0 mm 410 W/m2
10:49 15.6 °C -3.4 °C 1015.1 hPa WNW 8.4 km/h 22.5 km/h 27% 0 mm 276 W/m2
10:54 15.5 °C -3.5 °C 1015.1 hPa WNW 9.5 km/h 24.1 km/h 26.8% 0 mm 104 W/m2
10:59 15.4 °C -3.6 °C 1015.1 hPa West 8.4 km/h 24.1 km/h 26.8% 0 mm 114 W/m2
11:04 15.3 °C -3.9 °C 1015.1 hPa WNW 8.7 km/h 24.1 km/h 26.4% 0 mm 169 W/m2
11:09 15.2 °C -3.7 °C 1014.8 hPa WNW 7.7 km/h 25.7 km/h 26.8% 0 mm 79 W/m2
11:14 15.2 °C -3.6 °C 1014.8 hPa WNW 10.5 km/h 25.7 km/h 27.3% 0 mm 86 W/m2
11:19 15.1 °C -3.8 °C 1014.8 hPa NW 8 km/h 25.7 km/h 26.9% 0 mm 90 W/m2
11:24 15.1 °C -3.4 °C 1014.8 hPa NW 4 km/h 25.7 km/h 27.9% 0 mm 83 W/m2
11:29 15.1 °C -3.4 °C 1014.8 hPa West 3.2 km/h 25.7 km/h 27.7% 0 mm 200 W/m2
11:34 15.2 °C -3.3 °C 1014.8 hPa WNW 6.1 km/h 25.7 km/h 27.9% 0 mm 241 W/m2
11:39 15.2 °C -3.3 °C 1014.4 hPa WNW 8.2 km/h 20.9 km/h 27.6% 0 mm 294 W/m2
11:44 15.2 °C -3.2 °C 1014.8 hPa WNW 12.2 km/h 20.9 km/h 28% 0 mm 214 W/m2
11:49 15.1 °C -3.4 °C 1014.8 hPa WNW 8.5 km/h 22.5 km/h 27.7% 0 mm 114 W/m2
11:54 15.1 °C -3 °C 1014.8 hPa West 6.6 km/h 22.5 km/h 28.6% 0 mm 100 W/m2
11:59 15.2 °C -2.9 °C 1014.8 hPa WNW 7.1 km/h 24.1 km/h 28.6% 0 mm 380 W/m2
12:04 15.4 °C -3.5 °C 1014.8 hPa WNW 8 km/h 8 km/h 27% 0 mm 153 W/m2
12:09 15.4 °C -2.9 °C 1014.8 hPa WNW 7.6 km/h 22.5 km/h 28% 0 mm 448 W/m2
12:14 15.6 °C -3.2 °C 1014.8 hPa WNW 8.7 km/h 22.5 km/h 27.5% 0 mm 438 W/m2
12:19 15.6 °C -3.3 °C 1014.8 hPa WNW 11.1 km/h 24.1 km/h 27.2% 0 mm 316 W/m2
12:24 15.4 °C -3.4 °C 1014.8 hPa WNW 11.3 km/h 24.1 km/h 27.2% 0 mm 60 W/m2
12:29 15.3 °C -3.7 °C 1014.8 hPa WNW 10.3 km/h 27.4 km/h 26.7% 0 mm 83 W/m2
12:34 15.3 °C -3.8 °C 1014.8 hPa WNW 10.9 km/h 27.4 km/h 26.7% 0 mm 246 W/m2
12:39 15.3 °C -3.6 °C 1014.8 hPa WNW 7.2 km/h 25.7 km/h 26.8% 0 mm 475 W/m2
12:44 15.6 °C -3.8 °C 1014.8 hPa WNW 7.7 km/h 25.7 km/h 26% 0 mm 475 W/m2
12:49 15.9 °C -3.3 °C 1014.4 hPa West 6.9 km/h 25.7 km/h 26.5% 0 mm 141 W/m2
12:54 16 °C -3.5 °C 1014.4 hPa WNW 12.4 km/h 25.7 km/h 26% 0 mm 62 W/m2
12:59 15.9 °C -4 °C 1014.4 hPa West 8 km/h 25.7 km/h 25.2% 0 mm 51 W/m2
13:04 15.9 °C -3.8 °C 1014.4 hPa WSW 4.8 km/h 25.7 km/h 25.6% 0 mm 313 W/m2
13:09 16 °C -3.7 °C 1014.4 hPa WSW 6.6 km/h 20.9 km/h 25.6% 0 mm 288 W/m2
13:14 16.1 °C -4 °C 1014.4 hPa West 6.1 km/h 25.7 km/h 25% 0 mm 251 W/m2
13:19 16.1 °C -4.1 °C 1014.4 hPa WNW 8.7 km/h 25.7 km/h 24.7% 0 mm 318 W/m2
13:24 15.9 °C -4.6 °C 1014.4 hPa West 8.5 km/h 25.7 km/h 24.2% 0 mm 348 W/m2
13:29 15.8 °C -4.6 °C 1014.4 hPa WNW 10 km/h 25.7 km/h 24.1% 0 mm 345 W/m2
13:34 15.7 °C -4.6 °C 1014.4 hPa West 5.8 km/h 25.7 km/h 24.4% 0 mm 209 W/m2
13:39 15.6 °C -4.5 °C 1014.4 hPa WNW 4.8 km/h 17.7 km/h 24.8% 0 mm 192 W/m2
13:44 15.6 °C -4.4 °C 1014.4 hPa West 3.5 km/h 17.7 km/h 25% 0 mm 125 W/m2
13:49 15.6 °C -3.7 °C 1014.4 hPa West 1.3 km/h 17.7 km/h 26.4% 0 mm 128 W/m2
13:54 15.6 °C -3.6 °C 1014.4 hPa WSW 2.4 km/h 17.7 km/h 26.5% 0 mm 144 W/m2
13:57 15.6 °C -4 °C 1014.4 hPa WSW 1.8 km/h 17.7 km/h 25.7% 0 mm 193 W/m2
14:00 15.7 °C -3.8 °C 1014.4 hPa WSW 3.2 km/h 17.7 km/h 26% 0 mm 135 W/m2
14:30 15.4 °C -5.1 °C 1014.8 hPa WNW 6.4 km/h 24.1 km/h 24% 0 mm 122 W/m2
15:00 14.8 °C -5 °C 1014.8 hPa WNW 4.8 km/h 25.7 km/h 25% 0 mm 36 W/m2
15:30 14 °C -5.7 °C 1015.1 hPa West 3.2 km/h 19.3 km/h 25% 0 mm 26 W/m2
16:04 13.2 °C -5.5 °C 1015.8 hPa West 0.3 km/h 19.3 km/h 26.8% 0 mm 26 W/m2
16:09 13.1 °C -5.5 °C 1015.8 hPa West 0.3 km/h 4.8 km/h 27% 0 mm 9 W/m2
16:14 12.9 °C -5.7 °C 1015.8 hPa West 0.8 km/h 6.4 km/h 27% 0 mm 7 W/m2
16:19 12.8 °C -5.7 °C 1015.8 hPa Calm   6.4 km/h 27% 0 mm 5 W/m2
16:24 12.7 °C -5.8 °C 1015.8 hPa West 0.2 km/h 6.4 km/h 27% 0 mm 0 W/m2
16:29 12.5 °C -5.9 °C 1015.8 hPa Calm   6.4 km/h 27% 0 mm 0 W/m2
16:34 12.4 °C -6.1 °C 1016.1 hPa West 0.8 km/h 6.4 km/h 27% 0 mm 0 W/m2
16:39 12.3 °C -6 °C 1016.1 hPa West 0.8 km/h 9.7 km/h 27.3% 0 mm 0 W/m2
16:44 12.2 °C -5.8 °C 1016.1 hPa Calm   9.7 km/h 28% 0 mm 0 W/m2
16:49 12.1 °C -6.3 °C 1016.5 hPa West 0.6 km/h 9.7 km/h 27.2% 0 mm 0 W/m2
16:54 11.9 °C -6 °C 1016.5 hPa Calm   9.7 km/h 28% 0 mm 0 W/m2
16:59 11.8 °C -6.1 °C 1016.8 hPa Calm   9.7 km/h 28% 0 mm 0 W/m2
17:04 11.7 °C -6.2 °C 1016.8 hPa Calm   9.7 km/h 28% 0 mm 0 W/m2
17:09 11.6 °C -6.2 °C 1016.8 hPa West 0.5 km/h 8 km/h 28.2% 0 mm 0 W/m2
17:14 11.4 °C -6 °C 1016.8 hPa West 0.5 km/h 8 km/h 29% 0 mm 0 W/m2
17:19 11.3 °C -5.9 °C 1016.8 hPa Calm   8 km/h 29.5% 0 mm 0 W/m2
17:24 11.1 °C -5.9 °C 1016.8 hPa Calm   8 km/h 29.9% 0 mm 0 W/m2
17:29 10.9 °C -5.9 °C 1017.2 hPa West 0.5 km/h 8 km/h 30% 0 mm 0 W/m2
17:34 10.8 °C -6.1 °C 1017.2 hPa Calm   8 km/h 30% 0 mm 0 W/m2
17:39 10.7 °C -6.2 °C 1017.2 hPa West 0.2 km/h 4.8 km/h 30% 0 mm 0 W/m2
17:44 10.6 °C -6.2 °C 1017.2 hPa West 0.8 km/h 4.8 km/h 30% 0 mm 0 W/m2
17:49 10.6 °C -6.3 °C 1017.2 hPa West 0.3 km/h 4.8 km/h 30% 0 mm 0 W/m2
17:54 10.5 °C -6.3 °C 1017.2 hPa Calm   4.8 km/h 30% 0 mm 0 W/m2
17:59 10.4 °C -6.3 °C 1017.5 hPa West 0.8 km/h 4.8 km/h 30.1% 0 mm 0 W/m2
18:04 10.3 °C -5.8 °C 1017.5 hPa West 1 km/h 6.4 km/h 31.5% 0 mm 0 W/m2
18:09 10.3 °C -5.8 °C 1017.8 hPa West 0.5 km/h 6.4 km/h 31.7% 0 mm 0 W/m2
18:14 10.2 °C -5.7 °C 1017.8 hPa West 0.5 km/h 6.4 km/h 32% 0 mm 0 W/m2
18:19 10.2 °C -5.8 °C 1017.8 hPa West 0.3 km/h 6.4 km/h 32% 0 mm 0 W/m2
18:24 10.1 °C -5.6 °C 1018.2 hPa Calm   6.4 km/h 32.7% 0 mm 0 W/m2
18:29 10.1 °C -5.2 °C 1018.2 hPa Calm   6.4 km/h 33.8% 0 mm 0 W/m2
18:34 9.9 °C -5.2 °C 1018.2 hPa Calm   6.4 km/h 34% 0 mm 0 W/m2
18:39 9.8 °C -5.7 °C 1018.2 hPa Calm     33% 0 mm 0 W/m2
18:44 9.7 °C -5.8 °C 1018.2 hPa Calm     32.9% 0 mm 0 W/m2
18:49 9.7 °C -6.2 °C 1018.5 hPa Calm     32% 0 mm 0 W/m2
18:54 9.7 °C -6.1 °C 1018.2 hPa Calm     32.3% 0 mm 0 W/m2
18:59 9.6 °C -6.3 °C 1018.2 hPa Calm     32% 0 mm 0 W/m2
19:04 9.6 °C -6.3 °C 1018.2 hPa Calm     32.1% 0 mm 0 W/m2
19:09 9.5 °C -6.3 °C 1018.5 hPa Calm     32.2% 0 mm 0 W/m2
19:14 9.4 °C -6.2 °C 1018.5 hPa Calm     32.5% 0 mm 0 W/m2
19:19 9.4 °C -6.4 °C 1018.2 hPa Calm     32% 0 mm 0 W/m2
19:24 9.3 °C -6.1 °C 1018.2 hPa Calm     33.2% 0 mm 0 W/m2
19:29 9.2 °C -5.6 °C 1018.5 hPa Calm     34.6% 0 mm 0 W/m2
19:34 9.1 °C -5.7 °C 1018.5 hPa Calm     34.8% 0 mm 0 W/m2
19:39 8.8 °C -5.6 °C 1018.5 hPa Calm     35.6% 0 mm 0 W/m2
19:44 8.6 °C -5.4 °C 1018.5 hPa Calm     36.5% 0 mm 0 W/m2
19:49 8.4 °C -4.8 °C 1018.5 hPa Calm     38.7% 0 mm 0 W/m2
19:54 8.2 °C -5.3 °C 1018.5 hPa Calm     38% 0 mm 0 W/m2
19:59 8 °C -5.8 °C 1018.5 hPa Calm     37% 0 mm 0 W/m2
20:04 7.9 °C -5.9 °C 1018.5 hPa Calm     37% 0 mm 0 W/m2
20:09 7.9 °C -5.3 °C 1018.8 hPa Calm     38.8% 0 mm 0 W/m2
20:14 7.8 °C -4.9 °C 1018.8 hPa Calm   3.2 km/h 40.1% 0 mm 0 W/m2
20:19 7.6 °C -4.9 °C 1018.5 hPa West 1.9 km/h 9.7 km/h 40.8% 0 mm 0 W/m2
20:24 7.4 °C -4.3 °C 1018.8 hPa West 0.3 km/h 9.7 km/h 43.1% 0 mm 0 W/m2
20:29 7.3 °C -3.7 °C 1018.8 hPa Calm   9.7 km/h 45.4% 0 mm 0 W/m2
20:34 7.1 °C -4.5 °C 1018.8 hPa West 0.5 km/h 9.7 km/h 43.5% 0 mm 0 W/m2
20:39 7 °C -4.4 °C 1019.2 hPa WNW 1.8 km/h 9.7 km/h 44% 0 mm 0 W/m2
20:43 7 °C -4.1 °C 1019.2 hPa Calm   9.7 km/h 45% 0 mm 0 W/m2
20:49 7.1 °C -4.1 °C 1019.2 hPa Calm   9.7 km/h 45% 0 mm 0 W/m2
20:54 7.1 °C -4.1 °C 1019.2 hPa Calm   9.7 km/h 45% 0 mm 0 W/m2
20:59 7.1 °C -4.1 °C 1019.2 hPa NNW 2.4 km/h 11.3 km/h 44.9% 0 mm 0 W/m2
21:04 7.1 °C -3.8 °C 1019.5 hPa Calm   11.3 km/h 45.9% 0 mm 0 W/m2
21:09 7.1 °C -3.7 °C 1019.5 hPa Calm   1.6 km/h 46.2% 0 mm 0 W/m2
21:14 7 °C -3.5 °C 1019.9 hPa NNW 0.2 km/h 1.6 km/h 47% 0 mm 0 W/m2
21:19 7 °C -3.6 °C 1019.9 hPa NNW 0.2 km/h 3.2 km/h 47% 0 mm 0 W/m2
21:24 6.9 °C -3.6 °C 1019.9 hPa Calm   3.2 km/h 47% 0 mm 0 W/m2
21:29 6.9 °C -3.4 °C 1019.5 hPa Calm   3.2 km/h 47.8% 0 mm 0 W/m2
21:34 6.9 °C -3.2 °C 1019.5 hPa NNW 0.2 km/h 3.2 km/h 48.5% 0 mm 0 W/m2
21:39 6.8 °C -2.3 °C 1019.9 hPa Calm   3.2 km/h 52.1% 0 mm 0 W/m2
21:44 6.8 °C -2 °C 1019.9 hPa NNW 1.8 km/h 9.7 km/h 53.3% 0 mm 0 W/m2
21:49 6.8 °C -2.3 °C 1019.9 hPa NNW 3.2 km/h 14.5 km/h 52.2% 0 mm 0 W/m2
21:54 6.8 °C -1.9 °C 1019.9 hPa NNW 5.1 km/h 14.5 km/h 53.7% 0 mm 0 W/m2
21:59 6.9 °C -1.4 °C 1020.2 hPa WNW 6.6 km/h 22.5 km/h 55.2% 0 mm 0 W/m2
22:04 7.1 °C -1.3 °C 1019.9 hPa WNW 9.7 km/h 22.5 km/h 55.4% 0 mm 0 W/m2
22:09 7.1 °C -1.2 °C 1020.2 hPa WNW 8 km/h 20.9 km/h 55.6% 0 mm 0 W/m2
22:14 7.1 °C -1.3 °C 1020.2 hPa NW 8.7 km/h 20.9 km/h 54.9% 0 mm 0 W/m2
22:19 7.2 °C -1.4 °C 1020.2 hPa WNW 7.2 km/h 20.9 km/h 54.2% 0 mm 0 W/m2
22:24 7.2 °C -1.3 °C 1020.5 hPa WNW 9.3 km/h 22.5 km/h 55% 0 mm 0 W/m2
22:29 7.2 °C -1.2 °C 1020.5 hPa WNW 6.8 km/h 22.5 km/h 55.1% 0 mm 0 W/m2
22:34 7.1 °C -1.2 °C 1020.5 hPa NW 8.7 km/h 22.5 km/h 55.5% 0 mm 0 W/m2
22:39 7.1 °C -1.2 °C 1020.9 hPa WNW 6 km/h 20.9 km/h 55.8% 0 mm 0 W/m2
22:44 7 °C -1.1 °C 1020.9 hPa WNW 1.9 km/h 20.9 km/h 56.3% 0 mm 0 W/m2
22:49 6.9 °C -1.2 °C 1020.9 hPa NW 6.3 km/h 25.7 km/h 56% 0 mm 0 W/m2
22:54 6.8 °C -1.2 °C 1020.9 hPa NW 1.9 km/h 25.7 km/h 56.7% 0 mm 0 W/m2
22:59 6.7 °C -1.2 °C 1021.2 hPa NW 2.6 km/h 25.7 km/h 57% 0 mm 0 W/m2
23:09 6.4 °C -1.3 °C 1021.2 hPa NW 4.5 km/h 12.9 km/h 57.7% 0 mm 0 W/m2
23:14 6.3 °C -1.4 °C 1021.2 hPa WNW 7.4 km/h 17.7 km/h 58% 0 mm 0 W/m2
23:19 6.2 °C -1.4 °C 1020.9 hPa WNW 4 km/h 17.7 km/h 58% 0 mm 0 W/m2
23:24 6.1 °C -1.5 °C 1020.9 hPa NW 3.9 km/h 17.7 km/h 58% 0 mm 0 W/m2
23:29 6 °C -1.6 °C 1021.2 hPa NW 3.7 km/h 17.7 km/h 58.3% 0 mm 0 W/m2
23:34 5.9 °C -1.5 °C 1021.6 hPa WNW 4.8 km/h 17.7 km/h 58.8% 0 mm 0 W/m2
23:39 5.9 °C -1.5 °C 1021.6 hPa WNW 4.7 km/h 16.1 km/h 59% 0 mm 0 W/m2
23:44 5.8 °C -1.6 °C 1021.6 hPa NW 7.7 km/h 17.7 km/h 59% 0 mm 0 W/m2
23:49 5.8 °C -1.6 °C 1021.6 hPa WNW 7.2 km/h 17.7 km/h 59% 0 mm 0 W/m2
23:53 5.8 °C -1.6 °C 1021.6 hPa WNW 0.8 km/h 17.7 km/h 59% 0 mm 0 W/m2
Hartford County Weather
Compliments of Weather Underground - 4 mb